Tiempo atmosférico en la estación meteorológica de Velilla del Río Carrión, Camporredondo de Alba, Palencia (1575 m.)



Fecha
DESCASC
Temp. máxima en grados centígrados (hora)
DESCASC
Temp. mínima en grados centígrados (hora)
DESCASC
Temp. media en grados centígrados
DESCASC
Racha de viento máxima en m/sg (hora)
DESCASC
Velocidad máxima media en intervalos de 10 minutos(hora)
DESCASC
Precipitaciones diarias en mm
DESCASC
Precipitaciones de 00:00 a 06:00 en mm
DESCASC
Precipitaciones de 06:00 a 12:00 en mm
DESCASC
Precipitaciones de 12:00 a 18:00 en mm
DESCASC
Precipitaciones de 18:00 a 24:00 en mm
DESCASC
16-01-2020 4.4 (03:00) 1.3 (19:40) 2.9 29.44 (21:20) 18.89 (21:20) 9.4 3.2 2 0.2 4
15-01-2020 3.6 (23:59) 1.2 (00:00) 2.4 26.67 (03:30) 18.33 (04:40) 6.2 3.2 3 0 0
14-01-2020 1.3 (23:20) -2.5 (00:30) -0.6 21.11 (23:50) 12.22 (23:30) 1 0 0 0.2 0.8
13-01-2020 6.7 (15:20) -4.5 (19:40) 1.1 14.72 (13:50) 9.72 (14:10) 0 0 0 0 0
12-01-2020 12.1 (12:00) 1.5 (21:50) 6.8 6.67 (23:50) 5.83 (23:50) 0 0 0 0 0
11-01-2020 10.7 (15:10) -2.2 (-00:0) 4.2 4.44 (13:20) 3.33 (07:10) 0 0 0 0 0
10-01-2020 5.7 (13:40) -2.2 (-00:0) 1.7 8.33 (05:40) 4.72 (05:50) 0 0 0 0 0
09-01-2020 8.7 (14:10) -0.9 (-00:0) 3.9 16.39 (13:00) 10.83 (13:00) 0 0 0 0 0
08-01-2020 15.2 (13:20) 5.8 (00:00) 10.5 5.83 (15:30) 3.61 (15:50) 0 0 0 0 0
07-01-2020 14.9 (14:00) 4.8 (00:00) 9.8 5 (16:00) 3.89 (02:20) 0 0 0 0 0
06-01-2020 14.2 (13:40) 4.6 (00:00) 9.4 6.67 (12:40) 5 (16:30) 0 0 0 0 0
05-01-2020 16.9 (17:00) 4.5 (00:00) 10.7 6.39 (07:50) 5 (06:00) 0 0 0 0 0
04-01-2020 9.8 (13:20) -1.5 (-00:0) 4.2 7.5 (22:00) 5.83 (22:00) 0.2 0 0.2 0 0
03-01-2020 9.3 (13:20) -0.3 (00:00) 4.5 6.67 (14:10) 5.28 (14:10) 0 0 0 0 0
02-01-2020 11.7 (12:40) 5.3 (00:00) 8.5 8.61 (15:40) 6.11 (17:20) 0 0 0 0 0
01-01-2020 15.7 (14:50) 6.7 (00:00) 11.2 6.11 (15:40) 5 (17:40) 0 0 0 0 0
31-12-2019 15.5 (15:00) 6.6 (00:00) 11 6.39 (16:10) 4.72 (18:10) 0 0 0 0 0
30-12-2019 -- (--) -- (--) -- -- (--) -- (--) -- 0 0 -- 0
29-12-2019 20.4 (13:30) 8.9 (00:00) 14.6 3.61 (15:40) 2.78 (17:50) 0 0 0 0 0
28-12-2019 18.5 (16:00) 7.4 (00:00) 13 6.39 (09:00) 5.56 (09:00) 0 0 0 0 0
27-12-2019 16.8 (15:10) 4.6 (00:00) 10.7 4.72 (02:40) 3.89 (23:30) 0 0 0 0 0
26-12-2019 9.8 (14:50) 1.1 (00:00) 5.5 10.28 (02:40) 8.33 (02:50) 0 0 0 0 0
25-12-2019 12.8 (14:20) 5.4 (00:00) 9.1 11.67 (23:10) 8.33 (23:00) 0 0 0 0 0
24-12-2019 11 (14:50) 3.6 (00:00) 7.3 14.72 (01:40) 10.56 (01:40) 0 0 0 0 0
23-12-2019 7.3 (15:10) -1.6 (-00:0) 2.9 10.28 (00:10) 7.78 (00:10) 0 0 0 0 0
22-12-2019 6.6 (14:40) 0 (09:00) 3.3 23.06 (13:50) 15.83 (14:00) 2.2 0 1 1.2 0
21-12-2019 6.2 (12:20) -0.7 (02:40) 2.7 34.44 (14:30) 22.22 (14:10) 14.6 1.4 7.8 3 2.4

Gráficas

Temp. máximas Temp. mínimas Temp. medias Precipitaciones Rachas de viento máximas Velocidades máximas media en intervalos de 10 minutos

Datos horarios

Fecha y hora oficial Temperatura (ºC) Velocidad del viento (km/h) Dirección del viento Racha (km/h) Dirección de racha Precipitación (mm) Presión (hPa) Tendencia (hPa) Humedad (%)
2020-01-19 23:00:00 -5.2 49 Este 87 Este 0 -- -- 91
2020-01-19 22:00:00 -4.1 55 Este 89 Este 0 -- -- 74
2020-01-19 21:00:00 -4.2 55 Este 108 Este 0 -- -- 74
2020-01-19 20:00:00 -3.9 53 Este 102 Este 0 -- -- 71
2020-01-19 19:00:00 -4.2 50 Este 100 Nordeste 0 -- -- 73
2020-01-19 18:00:00 -4 61 Este 90 Este 0 -- -- 68
2020-01-19 17:00:00 -3.6 59 Este 85 Este 0 -- -- 67
2020-01-19 16:00:00 -3.1 43 Este 68 Este 0 -- -- 74
2020-01-19 15:00:00 -3 33 Este 65 Nordeste 0 -- -- 87
2020-01-19 14:00:00 -2 32 Nordeste 75 Este 0 -- -- 69
2020-01-19 13:00:00 -1.7 37 Nordeste 64 Nordeste 0 -- -- 70
2020-01-19 12:00:00 -1 35 Este 56 Este 0 -- -- 70
2020-01-19 11:00:00 -1.2 45 Nordeste 76 Nordeste 0 -- -- 66
2020-01-19 10:00:00 -1.8 43 Nordeste 82 Nordeste 0 -- -- 78
2020-01-19 09:00:00 -1.6 40 Nordeste 77 Este 0 -- -- 85
2020-01-19 08:00:00 -0.4 52 Nordeste 84 Nordeste 0 -- -- 81
2020-01-19 07:00:00 0 48 Este 75 Nordeste 0 -- -- 78
2020-01-19 06:00:00 0 29 Nordeste 58 Nordeste 0 -- -- 82
2020-01-19 05:00:00 -0.9 0 Calma -- -- 0 -- -- 98
2020-01-19 04:00:00 0 0 Calma -- -- 0 -- -- 91
2020-01-19 03:00:00 -1.2 0 Calma -- -- 0 -- -- 99
2020-01-19 02:00:00 -1.7 0 Calma -- -- 0 -- -- 100
2020-01-19 01:00:00 -1.5 0 Calma -- -- 0 -- -- 99
2020-01-19 00:00:00 -1.1 0 Calma -- -- 0 -- -- 99
2020-01-18 23:00:00 -1.2 0 Calma -- -- 0 -- -- 99
2020-01-18 22:00:00 -1.1 0 Calma -- -- 0 -- -- 99
2020-01-18 21:00:00 -1 0 Calma -- -- 0 -- -- 98
2020-01-18 20:00:00 -0.7 0 Calma -- -- 0 -- -- 99
2020-01-18 19:00:00 -0.5 0 Calma -- -- 0.2 -- -- 100
2020-01-18 18:00:00 -0.2 0 Calma 41 Norte 0 -- -- 99
2020-01-18 17:00:00 0.9 19 Norte 35 Norte 1.4 -- -- 98
2020-01-18 16:00:00 2.4 5 Oeste 32 Oeste 0.2 -- -- 99
2020-01-18 15:00:00 1.7 17 Oeste 31 Oeste 0.2 -- -- 100
2020-01-18 14:00:00 1.3 10 Oeste 26 Oeste 0.2 -- -- 99
2020-01-18 13:00:00 1 17 Oeste 26 Oeste 0.4 -- -- 99
2020-01-18 12:00:00 0.4 13 Oeste 24 Oeste 0.2 -- -- 99
2020-01-18 11:00:00 -0.5 14 Noroeste 25 Oeste 0 -- -- 99
2020-01-18 10:00:00 -0.7 18 Oeste 30 Oeste 0 -- -- 98
2020-01-18 09:00:00 -0.9 19 Oeste 39 Oeste 0 -- -- 96
2020-01-18 08:00:00 -0.3 25 Noroeste 39 Oeste 0 -- -- 89
2020-01-18 07:00:00 -1.1 20 Oeste 38 Noroeste 0 -- -- 93
2020-01-18 06:00:00 -0.2 27 Oeste 47 Oeste 0 -- -- 88
2020-01-18 05:00:00 -0.4 26 Oeste 40 Oeste 0 -- -- 83
2020-01-18 04:00:00 -0.6 13 Oeste 38 Oeste 0 -- -- 83
2020-01-18 03:00:00 -1 9 Oeste 22 Sudoeste 0 -- -- 86
2020-01-18 02:00:00 -0.8 12 Oeste 22 Oeste 0 -- -- 77
2020-01-18 01:00:00 -1 8 Noroeste 26 Oeste 0 -- -- 86
2020-01-18 00:00:00 -1.4 10 Oeste 16 Oeste 0 -- -- 87
2020-01-17 23:00:00 -1 11 Noroeste 16 Noroeste 0 -- -- 83
2020-01-17 22:00:00 -0.9 10 Oeste 14 Oeste 0 -- -- 86
2020-01-17 21:00:00 -1.7 8 Sudoeste 16 Oeste 0 -- -- 93
2020-01-17 20:00:00 -0.8 10 Noroeste 14 Oeste 0 -- -- 85
2020-01-17 19:00:00 -0.6 9 Oeste 22 Noroeste 0 -- -- 84
2020-01-17 18:00:00 -0.3 12 Oeste 26 Sudoeste 0 -- -- 85
2020-01-17 17:00:00 0.6 18 Oeste 32 Sudoeste 0 -- -- 84
2020-01-17 16:00:00 0.9 9 Oeste 23 Sudoeste 0 -- -- 75
2020-01-17 15:00:00 2.6 11 Oeste 30 Oeste 0 -- -- 73
2020-01-17 14:00:00 3.1 23 Oeste 40 Oeste 0 -- -- 76
2020-01-17 13:00:00 3 19 Oeste 33 Oeste 0 -- -- 79
2020-01-17 12:00:00 1.7 19 Oeste 34 Oeste 0.6 -- -- 86
2020-01-17 11:00:00 0.8 17 Oeste 28 Oeste 0.2 -- -- 92
2020-01-17 10:00:00 -0.8 19 Oeste 30 Noroeste 0 -- -- 98
2020-01-17 09:00:00 -1.4 21 Oeste 34 Oeste 0 -- -- 99
2020-01-17 08:00:00 -1.2 25 Oeste 40 Oeste 0 -- -- 99
2020-01-17 07:00:00 -0.7 28 Oeste 46 Oeste 0 -- -- 99
2020-01-17 06:00:00 -0.1 23 Oeste 43 Oeste 0 -- -- 100
2020-01-17 05:00:00 0.4 27 Oeste 50 Oeste 0.4 -- -- 100
2020-01-17 04:00:00 0.5 23 Oeste 41 Oeste 0.4 -- -- 100
2020-01-17 03:00:00 0.5 27 Oeste 59 Oeste 0.6 -- -- 98
2020-01-17 02:00:00 1.1 27 Oeste 57 Oeste 0.2 -- -- 99
2020-01-17 01:00:00 1.5 35 Oeste 63 Oeste 0.4 -- -- 99
2020-01-17 00:00:00 1.6 37 Oeste 64 Oeste 0.2 -- -- 100
2020-01-16 23:00:00 1.9 51 Oeste 81 Oeste 0.8 -- -- 99
2020-01-16 22:00:00 1.6 50 Oeste 106 Oeste 0.4 -- -- 99
2020-01-16 21:00:00 1.7 66 Oeste 100 Oeste 0.6 -- -- 97
2020-01-16 20:00:00 1.3 54 Oeste 82 Oeste 1.4 -- -- 97
2020-01-16 19:00:00 1.6 48 Oeste 81 Oeste 0.6 -- -- 95
2020-01-16 18:00:00 2.4 50 Oeste 79 Oeste 0 -- -- 91
2020-01-16 17:00:00 2.9 46 Oeste 93 Oeste 0 -- -- 96
2020-01-16 16:00:00 3.5 48 Oeste 81 Oeste 0 -- -- 99
2020-01-16 15:00:00 3.2 49 Oeste 87 Oeste 0 -- -- 100
2020-01-16 14:00:00 3 48 Oeste 86 Oeste 0 -- -- 100
2020-01-16 13:00:00 3.3 46 Oeste 87 Oeste 0.2 -- -- 100
2020-01-16 12:00:00 3.7 55 Oeste 86 Sudoeste 1.4 -- -- 100
2020-01-16 11:00:00 3.8 52 Oeste 81 Oeste 0 -- -- 100
2020-01-16 10:00:00 3.4 42 Oeste 64 Oeste 0.2 -- -- 100
2020-01-16 09:00:00 3.6 45 Oeste 69 Oeste 0 -- -- 100
2020-01-16 08:00:00 3.8 41 Oeste 75 Oeste 0 -- -- 100
2020-01-16 07:00:00 3.8 40 Oeste 69 Oeste 0.4 -- -- 100
2020-01-16 06:00:00 3.8 31 Oeste 57 Oeste 0.4 -- -- 100
2020-01-16 05:00:00 3.9 30 Oeste 64 Oeste 0.2 -- -- 100
2020-01-16 04:00:00 4.1 36 Oeste 68 Sudoeste 1.2 -- -- 100
2020-01-16 03:00:00 4.4 33 Oeste 65 Oeste 0.4 -- -- 100
2020-01-16 02:00:00 4.2 30 Oeste 51 Oeste 0.4 -- -- 100
2020-01-16 01:00:00 4 32 Oeste 54 Oeste 0.6 -- -- 100
2020-01-16 00:00:00 3.6 20 Oeste 36 Oeste 0 -- -- 100
2020-01-15 23:00:00 3.3 21 Oeste 35 Oeste 0 -- -- 100
2020-01-15 22:00:00 2.8 17 Oeste 24 Oeste 0 -- -- 100
2020-01-15 21:00:00 2.5 15 Oeste 33 Oeste 0 -- -- 100
2020-01-15 20:00:00 2.4 22 Oeste 32 Oeste 0 -- -- 100
2020-01-15 19:00:00 2.3 18 Oeste 31 Oeste 0 -- -- 99
2020-01-15 18:00:00 2.4 19 Oeste 40 Oeste 0 -- -- 100
2020-01-15 17:00:00 2.4 23 Oeste 38 Oeste 0 -- -- 99
2020-01-15 16:00:00 2.7 23 Oeste 37 Oeste 0 -- -- 100
2020-01-15 15:00:00 2.7 20 Oeste 41 Oeste 0 -- -- 100
2020-01-15 14:00:00 2.4 31 Oeste 45 Oeste 0 -- -- 100
2020-01-15 13:00:00 2.5 33 Oeste 48 Oeste 0 -- -- 100
2020-01-15 12:00:00 2.2 28 Oeste 58 Oeste 0.2 -- -- 100
2020-01-15 11:00:00 2.1 37 Oeste 71 Oeste 1.6 -- -- 100
2020-01-15 10:00:00 2.1 40 Oeste 73 Oeste 0.8 -- -- 100
2020-01-15 09:00:00 1.9 48 Oeste 84 Oeste 0.4 -- -- 100
2020-01-15 08:00:00 1.8 49 Oeste 88 Oeste 0 -- -- 100
2020-01-15 07:00:00 1.7 52 Oeste 89 Oeste 0 -- -- 100
2020-01-15 06:00:00 1.7 57 Oeste 91 Oeste 0.4 -- -- 99
2020-01-15 05:00:00 1.8 60 Oeste 92 Oeste 1 -- -- 99
2020-01-15 04:00:00 1.8 53 Oeste 96 Oeste 0.4 -- -- 99
2020-01-15 03:00:00 1.7 47 Oeste 86 Sudoeste 0.6 -- -- 99
2020-01-15 02:00:00 1.5 49 Oeste 81 Oeste 0.8 -- -- 99
2020-01-15 01:00:00 1.6 37 Oeste 72 Oeste 0 -- -- 99
2020-01-15 00:00:00 1.2 40 Oeste 76 Oeste 0.4 -- -- 99
2020-01-14 23:00:00 1 35 Oeste 59 Oeste 0.4 -- -- 99
2020-01-14 22:00:00 0.8 34 Oeste 54 Oeste 0 -- -- 99
2020-01-14 21:00:00 0.8 27 Oeste 56 Oeste 0 -- -- 99
2020-01-14 20:00:00 1 29 Oeste 54 Oeste 0 -- -- 99
2020-01-14 19:00:00 0.8 30 Oeste 52 Oeste 0 -- -- 99
2020-01-14 18:00:00 0.7 33 Oeste 56 Oeste 0 -- -- 99
2020-01-14 17:00:00 0.8 31 Oeste 56 Oeste 0 -- -- 99
2020-01-14 16:00:00 0.2 0 Calma -- -- 0 -- -- 99
2020-01-14 15:00:00 -0.1 0 Calma -- -- 0.2 -- -- 99
2020-01-14 14:00:00 -0.2 0 Calma -- -- 0 -- -- 99
2020-01-14 13:00:00 -0.6 0 Calma -- -- 0 -- -- 98
2020-01-14 12:00:00 -1.1 0 Calma -- -- 0 -- -- 98
2020-01-14 11:00:00 -1.1 0 Calma -- -- 0 -- -- 98
2020-01-14 10:00:00 -1 0 Calma 17 Oeste 0 -- -- 98
2020-01-14 09:00:00 -1.1 12 Oeste 26 Oeste 0 -- -- 98
2020-01-14 08:00:00 -1.1 20 Oeste 30 Oeste 0 -- -- 98
2020-01-14 07:00:00 -1.1 8 Oeste 23 Oeste 0 -- -- 98
2020-01-14 06:00:00 -1.2 11 Oeste 26 Oeste 0 -- -- 98
2020-01-14 05:00:00 -1.3 18 Oeste 25 Oeste 0 -- -- 98
2020-01-14 04:00:00 -2.1 12 Noroeste 17 Noroeste 0 -- -- 97
2020-01-14 03:00:00 -2.1 10 Oeste 20 Oeste 0 -- -- 97
2020-01-14 02:00:00 -2 16 Oeste 25 Oeste 0 -- -- 97
2020-01-14 01:00:00 -2.3 18 Oeste 40 Oeste 0 -- -- 97
2020-01-14 00:00:00 -2.2 22 Oeste 38 Oeste 0 -- -- 96
2020-01-13 23:00:00 -3.3 19 Oeste 30 Oeste 0 -- -- 95
2020-01-13 22:00:00 -3.6 19 Oeste 28 Noroeste 0 -- -- 95
2020-01-13 21:00:00 -4.1 9 Oeste 24 Noroeste 0 -- -- 95
2020-01-13 20:00:00 -4.3 15 Oeste 24 Noroeste 0 -- -- 95
2020-01-13 19:00:00 -2.9 17 Oeste 25 Oeste 0 -- -- 84
2020-01-13 18:00:00 -0.2 13 Oeste 20 Noroeste 0 -- -- 68
2020-01-13 17:00:00 4.4 13 Oeste 28 Oeste 0 -- -- 39
2020-01-13 16:00:00 2.4 17 Oeste 39 Oeste 0 -- -- 38
2020-01-13 15:00:00 6.3 28 Oeste 50 Oeste 0 -- -- 31
2020-01-13 14:00:00 6.6 30 Oeste 53 Oeste 0 -- -- 26
2020-01-13 13:00:00 5.6 21 Oeste 32 Noroeste 0 -- -- 29
2020-01-13 12:00:00 2.1 15 Oeste 26 Oeste 0 -- -- 40
2020-01-13 11:00:00 1.2 19 Oeste 27 Noroeste 0 -- -- 41
2020-01-13 10:00:00 0.8 15 Oeste 22 Noroeste 0 -- -- 38
2020-01-13 09:00:00 1.1 14 Oeste 19 Oeste 0 -- -- 35
2020-01-13 08:00:00 1.3 8 Oeste 17 Oeste 0 -- -- 34
2020-01-13 07:00:00 1.1 9 Oeste 16 Oeste 0 -- -- 34
2020-01-13 06:00:00 2.3 6 Oeste 12 Sudoeste 0 -- -- 29
2020-01-13 05:00:00 2.6 6 Sudoeste 12 Oeste 0 -- -- 25
2020-01-13 04:00:00 3.1 9 Oeste 15 Oeste 0 -- -- 25
2020-01-13 03:00:00 2.3 12 Oeste 15 Oeste 0 -- -- 28
2020-01-13 02:00:00 1.6 12 Oeste 19 Oeste 0 -- -- 38
2020-01-13 01:00:00 1.6 16 Oeste 23 Oeste 0 -- -- 40
2020-01-13 00:00:00 1.5 20 Oeste 24 Noroeste 0 -- -- 45
2020-01-12 23:00:00 2.2 19 Noroeste 22 Oeste 0 -- -- 44
2020-01-12 22:00:00 1.9 18 Oeste 20 Oeste 0 -- -- 52
2020-01-12 21:00:00 2.6 6 Noroeste 10 Noroeste 0 -- -- 59
2020-01-12 20:00:00 2.3 5 Norte 9 Norte 0 -- -- 67
2020-01-12 19:00:00 3.6 0 Calma 8 Oeste 0 -- -- 50
2020-01-12 18:00:00 5.1 6 Oeste 17 Noroeste 0 -- -- 52
2020-01-12 17:00:00 9.3 10 Oeste 19 Oeste 0 -- -- 37
2020-01-12 16:00:00 10.7 12 Oeste 23 Oeste 0 -- -- 28
2020-01-12 15:00:00 10.6 11 Oeste 19 Oeste 0 -- -- 29
2020-01-12 14:00:00 11.4 8 Sudoeste 16 Oeste 0 -- -- 25
2020-01-12 13:00:00 10.4 5 Oeste 10 Oeste 0 -- -- 24
2020-01-12 12:00:00 12.1 0 Calma 5 Oeste 0 -- -- 29
2020-01-12 11:00:00 8 2 Oeste 6 Noroeste 0 -- -- 28
2020-01-12 10:00:00 7.4 2 Noroeste 5 Nordeste 0 -- -- 32
2020-01-12 09:00:00 3.3 4 Nordeste 10 Este 0 -- -- 36
2020-01-12 08:00:00 3.7 7 Este 10 Este 0 -- -- 32
2020-01-12 07:00:00 4.5 2 Este 4 Este 0 -- -- 25
2020-01-12 06:00:00 4.3 3 Norte 6 Noroeste 0 -- -- 27
2020-01-12 05:00:00 4.7 5 Oeste 7 Oeste 0 -- -- 27
2020-01-12 04:00:00 4.1 3 Noroeste 10 Noroeste 0 -- -- 29
2020-01-12 03:00:00 4.9 4 Noroeste 6 Noroeste 0 -- -- 36
2020-01-12 02:00:00 4.8 4 Norte 9 Noroeste 0 -- -- 37
2020-01-12 01:00:00 5 10 Noroeste 15 Noroeste 0 -- -- 32
2020-01-12 00:00:00 4.9 9 Noroeste 10 Noroeste 0 -- -- 41
2020-01-11 23:00:00 4.4 0 Calma 2 Sur 0 -- -- 45
2020-01-11 22:00:00 5.8 0 Calma 3 Sur 0 -- -- 38
2020-01-11 21:00:00 5.1 3 Sudoeste 4 Oeste 0 -- -- 45
2020-01-11 20:00:00 4.6 4 Oeste 6 Noroeste 0 -- -- 53
2020-01-11 19:00:00 4.9 4 Noroeste 12 Noroeste 0 -- -- 54
2020-01-11 18:00:00 5.1 8 Oeste 13 Oeste 0 -- -- 52
2020-01-11 17:00:00 8.4 9 Oeste 15 Oeste 0 -- -- 45
2020-01-11 16:00:00 10.4 8 Oeste 15 Oeste 0 -- -- 38
2020-01-11 15:00:00 10.1 9 Oeste 15 Oeste 0 -- -- 33
2020-01-11 14:00:00 8.5 8 Oeste 16 Oeste 0 -- -- 31
2020-01-11 13:00:00 6.6 7 Oeste 14 Oeste 0 -- -- 38
2020-01-11 12:00:00 7.4 2 Oeste 7 Noroeste 0 -- -- 36
2020-01-11 11:00:00 7.1 0 Calma 4 Noroeste 0 -- -- 43
2020-01-11 10:00:00 3.6 2 Noroeste 8 Norte 0 -- -- 42
2020-01-11 09:00:00 -0.6 3 Noroeste 9 Noroeste 0 -- -- 53
2020-01-11 08:00:00 -0.5 5 Noroeste 14 Noroeste 0 -- -- 59
2020-01-11 07:00:00 -0.2 10 Noroeste 14 Noroeste 0 -- -- 47
2020-01-11 06:00:00 -0.9 2 Noroeste 5 Noroeste 0 -- -- 63
2020-01-11 05:00:00 -0.5 4 Noroeste 10 Noroeste 0 -- -- 74
2020-01-11 04:00:00 -1.5 10 Noroeste 13 Noroeste 0 -- -- 74
2020-01-11 03:00:00 -1.9 2 Norte 6 Noroeste 0 -- -- 81
2020-01-11 02:00:00 -1.1 5 Oeste 9 Noroeste 0 -- -- 85
2020-01-11 01:00:00 -2 4 Noroeste 6 Noroeste 0 -- -- 86
2020-01-11 00:00:00 -1.9 2 Noroeste 3 Noroeste 0 -- -- 95
2020-01-10 23:00:00 -1.9 0 Calma 3 Oeste 0 -- -- 96
2020-01-10 22:00:00 -2 0 Calma 3 Nordeste 0 -- -- 96
2020-01-10 21:00:00 -1.7 2 Nordeste 6 Este 0 -- -- 95
2020-01-10 20:00:00 -1.3 0 Calma 3 Este 0 -- -- 93
2020-01-10 19:00:00 -0.5 3 Oeste 8 Oeste 0 -- -- 90
2020-01-10 18:00:00 0.9 3 Sur 9 Sur 0 -- -- 79
2020-01-10 17:00:00 3.6 5 Sur 12 Oeste 0 -- -- 70
2020-01-10 16:00:00 2.6 9 Sudoeste 18 Oeste 0 -- -- 72
2020-01-10 15:00:00 5.2 10 Sudoeste 24 Sudoeste 0 -- -- 61
2020-01-10 14:00:00 4.3 3 Sudoeste 14 Oeste 0 -- -- 60
2020-01-10 13:00:00 4 3 Oeste 17 Sudoeste 0 -- -- 59
2020-01-10 12:00:00 3.4 11 Oeste 16 Sudoeste 0 -- -- 64
2020-01-10 11:00:00 2.4 6 Oeste 13 Sudoeste 0 -- -- 70
2020-01-10 10:00:00 1.4 2 Sudoeste 11 Oeste 0 -- -- 73
2020-01-10 09:00:00 -1.8 5 Oeste 17 Oeste 0 -- -- 86
2020-01-10 08:00:00 -1.7 9 Oeste 17 Oeste 0 -- -- 86
2020-01-10 07:00:00 -1.7 6 Noroeste 30 Norte 0 -- -- 82
2020-01-10 06:00:00 -0.8 12 Norte 30 Nordeste 0 -- -- 69
2020-01-10 05:00:00 -1.6 9 Noroeste 20 Noroeste 0 -- -- 87
2020-01-10 04:00:00 -1.7 5 Sudoeste 25 Norte 0 -- -- 95
2020-01-10 03:00:00 -1.6 10 Oeste 26 Oeste 0 -- -- 93
2020-01-10 02:00:00 -1.1 13 Oeste 23 Oeste 0 -- -- 85
2020-01-10 01:00:00 -0.1 4 Sudoeste 19 Norte 0 -- -- 71
2020-01-10 00:00:00 -0.7 6 Sur 21 Noroeste 0 -- -- 75
2020-01-09 23:00:00 -0.3 9 Noroeste 24 Noroeste 0 -- -- 72
2020-01-09 22:00:00 0.8 5 Oeste 13 Norte 0 -- -- 71
2020-01-09 21:00:00 1 8 Oeste 29 Norte 0 -- -- 82
2020-01-09 20:00:00 1.7 16 Noroeste 39 Noroeste 0 -- -- 95
2020-01-09 19:00:00 2.8 18 Oeste 49 Oeste 0 -- -- 95
2020-01-09 18:00:00 3.7 31 Oeste 47 Oeste 0 -- -- 93
2020-01-09 17:00:00 5.3 24 Oeste 54 Oeste 0 -- -- 78
2020-01-09 16:00:00 5.4 24 Oeste 38 Oeste 0 -- -- 84
2020-01-09 15:00:00 6.5 23 Oeste 46 Oeste 0 -- -- 82
2020-01-09 14:00:00 6.4 28 Oeste 54 Oeste 0 -- -- 88
2020-01-09 13:00:00 6.4 39 Oeste 59 Oeste 0 -- -- 86
2020-01-09 12:00:00 4.5 23 Oeste 39 Oeste 0 -- -- 94
2020-01-09 11:00:00 4.2 19 Oeste 31 Noroeste 0 -- -- 95
2020-01-09 10:00:00 3.7 19 Oeste 31 Noroeste 0 -- -- 95
2020-01-09 09:00:00 4 11 Oeste 28 Oeste 0 -- -- 94
2020-01-09 08:00:00 4.3 23 Noroeste 30 Noroeste 0 -- -- 87
2020-01-09 07:00:00 4.5 10 Oeste 19 Noroeste 0 -- -- 78
2020-01-09 06:00:00 5.4 16 Noroeste 20 Noroeste 0 -- -- 69
2020-01-09 05:00:00 4.9 9 Oeste 19 Noroeste 0 -- -- 55
2020-01-09 04:00:00 4.7 16 Oeste 19 Noroeste 0 -- -- 50
2020-01-09 03:00:00 5.5 13 Oeste 16 Oeste 0 -- -- 47
2020-01-09 02:00:00 6.7 8 Noroeste 12 Oeste 0 -- -- 51
2020-01-09 01:00:00 7.4 7 Oeste 11 Sudoeste 0 -- -- 60
2020-01-09 00:00:00 7.6 7 Oeste 10 Oeste 0 -- -- 60
2020-01-08 23:00:00 7.6 6 Noroeste 10 Noroeste 0 -- -- 59
2020-01-08 22:00:00 7.4 6 Noroeste 8 Noroeste 0 -- -- 55
2020-01-08 21:00:00 7.7 3 Oeste 5 Oeste 0 -- -- 54
2020-01-08 20:00:00 7.8 2 Noroeste 10 Noroeste 0 -- -- 50
2020-01-08 19:00:00 8.4 10 Noroeste 13 Noroeste 0 -- -- 50
2020-01-08 18:00:00 9.2 10 Oeste 13 Noroeste 0 -- -- 47
2020-01-08 17:00:00 12.4 10 Oeste 18 Oeste 0 -- -- 44
2020-01-08 16:00:00 13.1 12 Oeste 21 Oeste 0 -- -- 45
2020-01-08 15:00:00 13.1 8 Oeste 16 Sudoeste 0 -- -- 44
2020-01-08 14:00:00 13.6 9 Sudoeste 15 Sudoeste 0 -- -- 41
2020-01-08 13:00:00 14.9 0 Calma 6 Sudoeste 0 -- -- 39
2020-01-08 12:00:00 12.3 4 Sudoeste 9 Oeste 0 -- -- 41
2020-01-08 11:00:00 10.9 0 Calma 5 Este 0 -- -- 44
2020-01-08 10:00:00 6.8 4 Este 5 Este 0 -- -- 59
2020-01-08 09:00:00 7.2 2 Este 4 Este 0 -- -- 53
2020-01-08 08:00:00 7.2 0 Calma 4 Norte 0 -- -- 43
2020-01-08 07:00:00 6.4 0 Calma 5 Norte 0 -- -- 62
2020-01-08 06:00:00 6.5 0 Calma 2 Noroeste 0 -- -- 38
2020-01-08 05:00:00 7.1 0 Calma 4 Este 0 -- -- 35
2020-01-08 04:00:00 7.1 0 Calma 2 Norte 0 -- -- 33
2020-01-08 03:00:00 7.1 0 Calma 2 Norte 0 -- -- 42
2020-01-08 02:00:00 6.6 0 Calma 4 Oeste 0 -- -- 45
2020-01-08 01:00:00 7.1 3 Noroeste 5 Oeste 0 -- -- 30
2020-01-08 00:00:00 7.1 3 Oeste 5 Oeste 0 -- -- 29
2020-01-07 23:00:00 7.5 0 Calma 2 Noroeste 0 -- -- 28
2020-01-07 22:00:00 7 0 Calma 9 Noroeste 0 -- -- 31
2020-01-07 21:00:00 7.5 3 Oeste 9 Noroeste 0 -- -- 32
2020-01-07 20:00:00 7.3 6 Noroeste 13 Norte 0 -- -- 32
2020-01-07 19:00:00 8.2 7 Noroeste 8 Noroeste 0 -- -- 34
2020-01-07 18:00:00 9.5 6 Noroeste 10 Noroeste 0 -- -- 31
2020-01-07 17:00:00 12.5 5 Oeste 18 Oeste 0 -- -- 27
2020-01-07 16:00:00 13.1 10 Oeste 18 Oeste 0 -- -- 27
2020-01-07 15:00:00 14.2 7 Oeste 13 Noroeste 0 -- -- 26
2020-01-07 14:00:00 14.9 2 Oeste 9 Oeste 0 -- -- 27
2020-01-07 13:00:00 13.2 3 Oeste 9 Oeste 0 -- -- 28
2020-01-07 12:00:00 10.2 5 Oeste 12 Noroeste 0 -- -- 29
2020-01-07 11:00:00 9 5 Noroeste 15 Noroeste 0 -- -- 30
2020-01-07 10:00:00 6.9 11 Noroeste 14 Noroeste 0 -- -- 30
2020-01-07 09:00:00 5.3 8 Oeste 11 Noroeste 0 -- -- 31
2020-01-07 08:00:00 5.4 10 Noroeste 12 Noroeste 0 -- -- 30
2020-01-07 07:00:00 4.8 8 Oeste 14 Noroeste 0 -- -- 32
2020-01-07 06:00:00 5.6 13 Noroeste 17 Noroeste 0 -- -- 34
2020-01-07 05:00:00 6 12 Noroeste 15 Noroeste 0 -- -- 32
2020-01-07 04:00:00 6.1 14 Noroeste 15 Noroeste 0 -- -- 35
2020-01-07 03:00:00 5.6 9 Noroeste 17 Norte 0 -- -- 36
2020-01-07 02:00:00 5.3 9 Noroeste 12 Noroeste 0 -- -- 39
2020-01-07 01:00:00 5.9 2 Noroeste 5 Sudoeste 0 -- -- 38
2020-01-07 00:00:00 5.6 3 Noroeste 13 Norte 0 -- -- 40
2020-01-06 23:00:00 4.6 5 Norte 10 Norte 0 -- -- 44
2020-01-06 22:00:00 5.9 3 Oeste 5 Oeste 0 -- -- 42
2020-01-06 21:00:00 5.7 2 Oeste 6 Noroeste 0 -- -- 45
2020-01-06 20:00:00 5.7 4 Noroeste 7 Noroeste 0 -- -- 46
2020-01-06 19:00:00 7.1 0 Calma 21 Noroeste 0 -- -- 43
2020-01-06 18:00:00 8 18 Oeste 23 Noroeste 0 -- -- 41
2020-01-06 17:00:00 9.5 11 Oeste 24 Oeste 0 -- -- 38
2020-01-06 16:00:00 10.3 15 Oeste 19 Oeste 0 -- -- 34
2020-01-06 15:00:00 12.6 12 Oeste 22 Oeste 0 -- -- 31
2020-01-06 14:00:00 13.9 13 Oeste 22 Oeste 0 -- -- 28
2020-01-06 13:00:00 12.2 13 Oeste 24 Noroeste 0 -- -- 30
2020-01-06 12:00:00 11.5 10 Oeste 16 Oeste 0 -- -- 32
2020-01-06 11:00:00 9.2 10 Noroeste 14 Noroeste 0 -- -- 33
2020-01-06 10:00:00 8.3 10 Noroeste 13 Noroeste 0 -- -- 34